createdAt,value
2023-04-16T00:00:06.586Z,12.32
2023-04-16T00:02:34.646Z,11.70
2023-04-16T00:05:02.700Z,11.27
2023-04-16T00:07:32.085Z,11.38
2023-04-16T00:10:00.023Z,11.10
2023-04-16T00:12:27.938Z,11.48
2023-04-16T00:14:55.847Z,11.23
2023-04-16T00:17:23.844Z,12.77
2023-04-16T00:19:51.998Z,11.50
2023-04-16T00:22:19.938Z,11.90
2023-04-16T00:24:49.272Z,11.13
2023-04-16T00:27:17.187Z,13.50
2023-04-16T00:29:45.100Z,13.32
2023-04-16T00:32:13.016Z,11.48
2023-04-16T00:34:40.920Z,11.70
2023-04-16T00:37:08.805Z,14.50
2023-04-16T00:39:36.756Z,12.00
2023-04-16T00:42:06.067Z,13.77
2023-04-16T00:44:36.046Z,12.88
2023-04-16T00:47:04.307Z,15.98
2023-04-16T00:49:32.492Z,13.05
2023-04-16T00:52:02.499Z,13.27
2023-04-16T00:54:31.072Z,14.05
2023-04-16T00:57:00.206Z,13.65
2023-04-16T00:59:30.442Z,15.43
2023-04-16T01:01:58.492Z,14.35
2023-04-16T01:04:26.674Z,13.52
2023-04-16T01:06:54.909Z,12.82
2023-04-16T01:09:22.858Z,13.02
2023-04-16T01:11:50.781Z,14.45
2023-04-16T01:14:18.714Z,13.32
2023-04-16T01:16:48.111Z,13.40
2023-04-16T01:19:16.138Z,15.38
2023-04-16T01:21:45.639Z,14.20
2023-04-16T01:24:13.613Z,13.70
2023-04-16T01:26:41.490Z,13.60
2023-04-16T01:29:09.642Z,12.57
2023-04-16T01:31:37.859Z,14.93
2023-04-16T01:34:06.151Z,11.77
2023-04-16T01:36:34.024Z,11.98
2023-04-16T01:39:03.484Z,12.27
2023-04-16T01:41:32.284Z,13.63
2023-04-16T01:44:00.183Z,15.77
2023-04-16T01:46:30.018Z,10.68
2023-04-16T01:48:58.252Z,9.95
2023-04-16T01:51:27.328Z,11.02
2023-04-16T01:53:56.100Z,11.32
2023-04-16T01:56:25.467Z,10.55
2023-04-16T01:58:54.133Z,13.20
2023-04-16T02:01:22.190Z,10.63
2023-04-16T02:03:50.353Z,9.30
2023-04-16T02:06:18.319Z,10.38
2023-04-16T02:08:46.261Z,9.38
2023-04-16T02:11:14.174Z,12.73
2023-04-16T02:13:43.466Z,11.13
2023-04-16T02:16:11.480Z,10.05
2023-04-16T02:18:39.520Z,9.30
2023-04-16T02:21:07.917Z,9.95
2023-04-16T02:23:36.017Z,10.45
2023-04-16T02:26:04.635Z,15.43
2023-04-16T02:28:32.609Z,10.40
2023-04-16T02:31:01.978Z,9.27
2023-04-16T02:33:30.244Z,8.80
2023-04-16T02:35:58.139Z,12.23
2023-04-16T02:38:26.153Z,10.00
2023-04-16T02:40:54.099Z,11.23
2023-04-16T02:43:21.968Z,9.40
2023-04-16T02:45:49.953Z,10.20
2023-04-16T02:48:19.237Z,11.05
2023-04-16T02:50:47.160Z,10.57
2023-04-16T02:53:15.045Z,10.15
2023-04-16T02:55:44.100Z,10.02
2023-04-16T02:58:11.977Z,8.68
2023-04-16T03:00:39.897Z,11.50
2023-04-16T03:03:07.951Z,13.35
2023-04-16T03:05:39.712Z,9.73
2023-04-16T03:08:08.532Z,9.40
2023-04-16T03:10:36.638Z,8.80
2023-04-16T03:13:05.145Z,10.48
2023-04-16T03:15:33.123Z,10.48
2023-04-16T03:18:01.429Z,9.95
2023-04-16T03:20:29.433Z,9.35
2023-04-16T03:22:58.795Z,12.77
2023-04-16T03:25:26.732Z,12.98
2023-04-16T03:27:54.682Z,9.43
2023-04-16T03:30:22.800Z,9.57
2023-04-16T03:32:50.846Z,9.95
2023-04-16T03:35:18.877Z,12.77
2023-04-16T03:37:46.774Z,10.65
2023-04-16T03:40:16.425Z,10.23
2023-04-16T03:42:44.361Z,9.57
2023-04-16T03:45:12.587Z,13.25
2023-04-16T03:47:40.466Z,12.20
2023-04-16T03:50:08.960Z,10.95
2023-04-16T03:52:36.858Z,10.80
2023-04-16T03:55:05.264Z,11.07
2023-04-16T03:57:34.513Z,11.02
2023-04-16T04:00:02.433Z,11.25
2023-04-16T04:02:30.511Z,11.50
2023-04-16T04:04:58.524Z,11.48
2023-04-16T04:07:26.426Z,9.82
2023-04-16T04:09:54.369Z,13.05
2023-04-16T04:12:22.254Z,17.13
2023-04-16T04:14:51.591Z,11.25
2023-04-16T04:17:19.548Z,13.07
2023-04-16T04:20:00.552Z,12.63
2023-04-16T04:22:29.496Z,12.63
2023-04-16T04:24:57.426Z,12.07
2023-04-16T04:27:25.322Z,11.95
2023-04-16T04:29:54.765Z,12.20
2023-04-16T04:32:22.763Z,13.45
2023-04-16T04:34:50.769Z,13.27
2023-04-16T04:37:18.715Z,12.27
2023-04-16T04:39:46.674Z,18.98
2023-04-16T04:42:14.721Z,12.27
2023-04-16T04:44:42.663Z,11.85
2023-04-16T04:47:12.037Z,14.20
2023-04-16T04:49:40.155Z,14.85
2023-04-16T04:52:08.164Z,12.32
2023-04-16T04:54:36.165Z,11.20
2023-04-16T04:57:04.116Z,11.82
2023-04-16T04:59:32.089Z,12.38
2023-04-16T05:02:00.549Z,12.60
2023-04-16T05:04:29.893Z,11.95
2023-04-16T05:06:57.760Z,12.73
2023-04-16T05:09:25.917Z,13.60
2023-04-16T05:11:54.075Z,13.85
2023-04-16T05:14:21.989Z,13.38
2023-04-16T05:16:49.943Z,15.02
2023-04-16T05:19:18.172Z,13.50
2023-04-16T05:21:47.395Z,12.38
2023-04-16T05:24:15.358Z,15.77
2023-04-16T05:26:43.858Z,13.00
2023-04-16T05:29:13.404Z,12.93
2023-04-16T05:31:41.327Z,15.60
2023-04-16T05:34:09.288Z,14.15
2023-04-16T05:36:37.350Z,12.60
2023-04-16T05:39:08.537Z,12.30
2023-04-16T05:41:37.106Z,13.25
2023-04-16T05:44:05.246Z,13.00
2023-04-16T05:46:33.213Z,14.23
2023-04-16T05:49:01.413Z,13.07
2023-04-16T05:51:29.411Z,13.35
2023-04-16T05:53:57.410Z,12.43
2023-04-16T05:56:27.179Z,13.43
2023-04-16T05:58:55.109Z,14.25
2023-04-16T06:01:23.622Z,19.52
2023-04-16T06:03:51.748Z,13.65
2023-04-16T06:06:19.703Z,14.02
2023-04-16T06:08:47.649Z,15.68
2023-04-16T06:11:15.594Z,16.52
2023-04-16T06:13:46.030Z,14.13
2023-04-16T06:16:14.097Z,21.80
2023-04-16T06:18:42.409Z,22.35
2023-04-16T06:21:10.383Z,14.35
2023-04-16T06:23:38.277Z,13.35
2023-04-16T06:26:06.566Z,12.20
2023-04-16T06:28:34.560Z,12.52
2023-04-16T06:31:03.944Z,17.98
2023-04-16T06:33:31.853Z,16.38
2023-04-16T06:35:59.772Z,16.88
2023-04-16T06:38:27.685Z,15.73
2023-04-16T06:40:56.581Z,13.07
2023-04-16T06:43:24.528Z,15.50
2023-04-16T06:45:52.467Z,17.60
2023-04-16T06:48:21.808Z,13.77
2023-04-16T06:50:49.787Z,16.75
2023-04-16T06:53:17.877Z,16.15
2023-04-16T06:55:45.722Z,15.32
2023-04-16T06:58:13.632Z,17.40
2023-04-16T07:00:41.502Z,16.30
2023-04-16T07:03:09.602Z,18.92
2023-04-16T07:05:38.997Z,15.52
2023-04-16T07:08:07.304Z,17.55
2023-04-16T07:10:35.410Z,21.80
2023-04-16T07:13:03.426Z,17.48
2023-04-16T07:15:31.327Z,16.83
2023-04-16T07:17:59.237Z,21.13
2023-04-16T07:20:27.217Z,18.27
2023-04-16T07:22:56.561Z,18.42
2023-04-16T07:25:24.573Z,17.67
2023-04-16T07:27:52.766Z,17.70
2023-04-16T07:30:20.786Z,18.65
2023-04-16T07:32:48.749Z,25.38
2023-04-16T07:35:16.683Z,19.55
2023-04-16T07:37:44.589Z,19.40
2023-04-16T07:40:14.304Z,20.05
2023-04-16T07:42:42.253Z,19.65
2023-04-16T07:45:11.126Z,19.05
2023-04-16T07:47:39.000Z,18.55
2023-04-16T07:50:08.279Z,19.85
2023-04-16T07:52:37.327Z,21.13
2023-04-16T07:55:05.757Z,19.63
2023-04-16T07:57:35.278Z,19.38
2023-04-16T08:00:05.082Z,20.77
2023-04-16T08:02:33.288Z,21.63
2023-04-16T08:05:01.477Z,16.45
2023-04-16T08:07:29.540Z,19.88
2023-04-16T08:09:57.429Z,19.63
2023-04-16T08:12:25.445Z,23.38
2023-04-16T08:14:54.756Z,19.60
2023-04-16T08:17:22.738Z,20.50
2023-04-16T08:19:50.856Z,19.95
2023-04-16T08:22:18.964Z,18.05
2023-04-16T08:24:46.935Z,18.35
2023-04-16T08:27:18.441Z,16.42
2023-04-16T08:29:47.548Z,18.33
2023-04-16T08:32:16.924Z,22.02
2023-04-16T08:34:44.842Z,21.70
2023-04-16T08:37:12.749Z,17.13
2023-04-16T08:39:40.667Z,20.33
2023-04-16T08:42:15.401Z,17.98
2023-04-16T08:44:49.392Z,17.23
2023-04-16T08:47:18.986Z,17.92
2023-04-16T08:49:47.055Z,14.00
2023-04-16T08:52:19.583Z,15.68
2023-04-16T08:54:56.732Z,14.90
2023-04-16T08:57:31.605Z,16.45
2023-04-16T09:00:00.159Z,12.73
2023-04-16T09:02:30.003Z,17.17
2023-04-16T09:05:01.544Z,13.90
2023-04-16T09:07:30.910Z,16.05
2023-04-16T09:10:00.712Z,17.33
2023-04-16T09:12:28.983Z,17.85
2023-04-16T09:14:59.795Z,21.90
2023-04-16T09:17:29.216Z,13.77
2023-04-16T09:19:57.212Z,21.63
2023-04-16T09:22:25.116Z,12.73
2023-04-16T09:24:53.053Z,14.80
2023-04-16T09:27:23.243Z,16.33
2023-04-16T09:29:52.066Z,14.45
2023-04-16T09:32:26.361Z,16.65
2023-04-16T09:35:00.183Z,20.35
2023-04-16T09:40:00.743Z,23.27
2023-04-16T09:42:32.346Z,17.55
2023-04-16T09:45:02.786Z,16.95
2023-04-16T09:47:51.077Z,18.00
2023-04-16T09:50:21.638Z,19.92
2023-04-16T09:52:51.662Z,17.40
2023-04-16T09:55:24.890Z,15.88
2023-04-16T09:58:00.394Z,20.90
2023-04-16T10:00:30.632Z,19.30
2023-04-16T10:03:05.833Z,16.35
2023-04-16T10:05:35.265Z,18.42
2023-04-16T10:08:03.280Z,24.30
2023-04-16T10:10:31.926Z,16.92
2023-04-16T10:12:59.959Z,19.83
2023-04-16T10:15:28.970Z,16.52
2023-04-16T10:17:58.316Z,20.65
2023-04-16T10:20:27.423Z,24.52
2023-04-16T10:22:57.960Z,15.82
2023-04-16T10:25:26.853Z,19.60
2023-04-16T10:27:55.597Z,18.83
2023-04-16T10:32:53.759Z,21.42
2023-04-16T10:35:21.769Z,22.45
2023-04-16T10:37:51.557Z,18.95
2023-04-16T10:40:26.716Z,17.40
2023-04-16T10:42:58.268Z,17.95
2023-04-16T10:45:32.658Z,16.85
2023-04-16T10:48:00.603Z,22.92
2023-04-16T10:50:39.184Z,20.20
2023-04-16T10:53:25.829Z,18.05
2023-04-16T10:56:12.861Z,20.70
2023-04-16T10:58:42.870Z,16.83
2023-04-16T11:01:16.590Z,17.48
2023-04-16T11:03:48.982Z,17.05
2023-04-16T11:06:18.132Z,21.10
2023-04-16T11:08:54.742Z,20.00
2023-04-16T11:11:26.802Z,19.52
2023-04-16T11:13:57.495Z,23.83
2023-04-16T11:16:27.352Z,24.40
2023-04-16T11:18:57.175Z,21.92
2023-04-16T11:21:25.753Z,26.83
2023-04-16T11:23:54.423Z,23.08
2023-04-16T11:26:28.763Z,26.85
2023-04-16T11:28:57.759Z,28.20
2023-04-16T11:31:27.323Z,22.58
2023-04-16T11:33:57.530Z,32.80
2023-04-16T11:36:27.820Z,23.25
2023-04-16T11:39:03.779Z,24.67
2023-04-16T11:41:33.121Z,24.38
2023-04-16T11:44:01.427Z,25.05
2023-04-16T11:46:39.697Z,21.98
2023-04-16T11:49:07.857Z,20.88
2023-04-16T11:51:41.227Z,20.92
2023-04-16T11:54:12.001Z,24.20
2023-04-16T11:56:48.434Z,24.10
2023-04-16T11:59:17.844Z,23.52
2023-04-16T12:01:49.219Z,22.25
2023-04-16T12:04:18.648Z,25.90
2023-04-16T12:07:09.181Z,20.38
2023-04-16T12:09:40.190Z,26.88
2023-04-16T12:12:27.389Z,22.27
2023-04-16T12:14:56.936Z,17.98
2023-04-16T12:17:25.305Z,21.30
2023-04-16T12:19:56.600Z,26.40
2023-04-16T12:22:29.092Z,25.33
2023-04-16T12:24:59.462Z,26.80
2023-04-16T12:27:43.271Z,20.85
2023-04-16T12:30:12.121Z,23.23
2023-04-16T12:32:40.160Z,23.17
2023-04-16T12:35:09.296Z,25.55
2023-04-16T12:37:37.251Z,20.58
2023-04-16T12:40:07.055Z,21.42
2023-04-16T12:42:36.927Z,21.45
2023-04-16T12:45:05.955Z,23.48
2023-04-16T12:47:34.298Z,23.00
2023-04-16T12:50:02.357Z,22.63
2023-04-16T12:52:30.314Z,24.67
2023-04-16T12:54:58.319Z,22.33
2023-04-16T12:57:28.812Z,21.52
2023-04-16T12:59:58.783Z,27.50
2023-04-16T13:02:27.224Z,25.77
2023-04-16T13:04:55.832Z,22.23
2023-04-16T13:07:24.253Z,21.27
2023-04-16T13:09:52.220Z,21.88
2023-04-16T13:12:20.206Z,21.77
2023-04-16T13:14:48.139Z,23.08
2023-04-16T13:17:17.401Z,22.20
2023-04-16T13:19:45.813Z,18.92
2023-04-16T13:22:14.089Z,25.58
2023-04-16T13:24:42.006Z,22.55
2023-04-16T13:27:10.318Z,21.42
2023-04-16T13:29:38.248Z,19.90
2023-04-16T13:32:06.862Z,23.25
2023-04-16T13:34:36.232Z,21.90
2023-04-16T13:37:04.128Z,23.15
2023-04-16T13:39:32.036Z,22.08
2023-04-16T13:42:00.251Z,26.08
2023-04-16T13:44:28.202Z,21.60
2023-04-16T13:46:56.323Z,20.95
2023-04-16T13:49:24.536Z,19.77
2023-04-16T13:51:53.854Z,18.85
2023-04-16T13:54:22.092Z,22.00
2023-04-16T13:56:51.359Z,23.20
2023-04-16T13:59:20.263Z,21.13
2023-04-16T14:01:48.226Z,21.25
2023-04-16T14:04:16.316Z,21.67
2023-04-16T14:06:44.291Z,24.55
2023-04-16T14:09:13.637Z,21.73
2023-04-16T14:11:41.627Z,24.33
2023-04-16T14:14:09.580Z,23.50
2023-04-16T14:16:37.483Z,20.77
2023-04-16T14:19:05.453Z,20.52
2023-04-16T14:21:33.368Z,21.40
2023-04-16T14:24:01.274Z,24.05
2023-04-16T14:26:30.655Z,21.38
2023-04-16T14:28:58.647Z,21.50
2023-04-16T14:31:27.704Z,24.08
2023-04-16T14:33:55.898Z,17.92
2023-04-16T14:36:23.863Z,21.45
2023-04-16T14:38:51.764Z,23.20
2023-04-16T14:41:19.699Z,20.15
2023-04-16T14:43:49.011Z,21.23
2023-04-16T14:46:17.880Z,19.30
2023-04-16T14:48:46.368Z,18.20
2023-04-16T14:51:14.320Z,22.23
2023-04-16T14:53:42.281Z,18.85
2023-04-16T14:56:13.602Z,25.35
2023-04-16T14:58:42.933Z,20.35
2023-04-16T15:01:13.728Z,18.67
2023-04-16T15:03:43.046Z,18.42
2023-04-16T15:06:11.452Z,24.73
2023-04-16T15:08:39.492Z,26.65
2023-04-16T15:11:07.520Z,22.08
2023-04-16T15:13:35.410Z,27.20
2023-04-16T15:16:04.492Z,27.25
2023-04-16T15:18:34.215Z,18.75
2023-04-16T15:21:02.191Z,20.52
2023-04-16T15:23:30.198Z,53.70
2023-04-16T15:25:58.112Z,54.03
2023-04-16T15:28:26.160Z,23.10
2023-04-16T15:30:54.197Z,20.27
2023-04-16T15:33:22.553Z,22.42
2023-04-16T15:35:52.638Z,20.50
2023-04-16T15:38:21.345Z,22.63
2023-04-16T15:40:49.300Z,19.38
2023-04-16T15:43:17.424Z,21.63
2023-04-16T15:45:46.179Z,19.20
2023-04-16T15:48:14.346Z,23.17
2023-04-16T15:50:42.294Z,23.92
2023-04-16T15:53:12.914Z,21.85
2023-04-16T15:55:40.971Z,18.52
2023-04-16T15:58:09.012Z,19.30
2023-04-16T16:00:36.983Z,21.55
2023-04-16T16:03:05.136Z,19.83
2023-04-16T16:05:33.263Z,18.02
2023-04-16T16:08:01.845Z,22.45
2023-04-16T16:10:31.205Z,21.58
2023-04-16T16:13:05.190Z,18.55
2023-04-16T16:15:35.553Z,18.92
2023-04-16T16:18:03.557Z,24.67
2023-04-16T16:20:32.015Z,19.88
2023-04-16T16:22:59.902Z,24.00
2023-04-16T16:25:27.830Z,25.48
2023-04-16T16:27:57.190Z,22.48
2023-04-16T16:30:25.681Z,24.40
2023-04-16T16:32:53.791Z,21.95
2023-04-16T16:35:21.882Z,28.77
2023-04-16T16:37:51.865Z,22.45
2023-04-16T16:40:19.735Z,24.92
2023-04-16T16:42:47.703Z,29.85
2023-04-16T16:45:17.305Z,28.15
2023-04-16T16:47:45.273Z,30.10
2023-04-16T16:50:13.651Z,23.73
2023-04-16T16:52:41.753Z,27.27
2023-04-16T16:55:11.188Z,23.10
2023-04-16T16:57:39.939Z,29.50
2023-04-16T17:00:16.317Z,23.48
2023-04-16T17:02:45.749Z,20.05
2023-04-16T17:05:13.930Z,24.40
2023-04-16T17:07:41.823Z,21.33
2023-04-16T17:10:13.224Z,21.20
2023-04-16T17:12:41.208Z,20.55
2023-04-16T17:15:10.306Z,20.40
2023-04-16T17:17:38.267Z,20.15
2023-04-16T17:20:10.829Z,22.83
2023-04-16T17:22:39.734Z,18.95
2023-04-16T17:25:08.776Z,27.25
2023-04-16T17:27:36.718Z,17.92
2023-04-16T17:30:05.897Z,19.98
2023-04-16T17:32:33.995Z,19.52
2023-04-16T17:35:04.246Z,24.60
2023-04-16T17:37:34.319Z,18.35
2023-04-16T17:40:06.459Z,18.77
2023-04-16T17:42:34.818Z,20.95
2023-04-16T17:45:02.880Z,21.13
2023-04-16T17:47:30.844Z,17.75
2023-04-16T17:49:58.803Z,21.10
2023-04-16T17:52:27.356Z,22.67
2023-04-16T17:55:00.361Z,17.90
2023-04-16T17:57:28.342Z,23.65
2023-04-16T17:59:56.384Z,19.77
2023-04-16T18:02:24.578Z,21.98
2023-04-16T18:04:52.750Z,22.95
2023-04-16T18:07:20.790Z,24.45
2023-04-16T18:09:48.760Z,20.17
2023-04-16T18:12:18.032Z,25.83
2023-04-16T18:14:46.232Z,26.42
2023-04-16T18:17:14.154Z,22.20
2023-04-16T18:19:43.830Z,19.38
2023-04-16T18:22:13.327Z,19.58
2023-04-16T18:24:41.318Z,22.80
2023-04-16T18:27:09.367Z,19.95
2023-04-16T18:29:40.197Z,24.88
2023-04-16T18:32:11.729Z,20.63
2023-04-16T18:34:40.298Z,24.98
2023-04-16T18:37:08.227Z,20.15
2023-04-16T18:39:36.798Z,17.95
2023-04-16T18:42:05.229Z,17.23
2023-04-16T18:44:33.204Z,17.48
2023-04-16T18:47:02.585Z,22.00
2023-04-16T18:49:30.535Z,18.13
2023-04-16T18:51:58.420Z,17.60
2023-04-16T18:54:26.319Z,20.67
2023-04-16T18:56:54.221Z,21.65
2023-04-16T18:59:22.399Z,20.33
2023-04-16T19:01:50.828Z,26.83
2023-04-16T19:04:20.263Z,30.05
2023-04-16T19:06:48.563Z,25.63
2023-04-16T19:09:17.044Z,30.55
2023-04-16T19:11:45.183Z,32.00
2023-04-16T19:14:13.080Z,26.67
2023-04-16T19:16:41.148Z,30.35
2023-04-16T19:19:09.301Z,43.72
2023-04-16T19:21:38.723Z,74.95
2023-04-16T19:24:07.205Z,57.13
2023-04-16T19:26:35.162Z,22.58
2023-04-16T19:29:03.587Z,24.42
2023-04-16T19:31:31.532Z,20.25
2023-04-16T19:33:59.468Z,23.58
2023-04-16T19:36:27.692Z,25.52
2023-04-16T19:38:57.019Z,26.23
2023-04-16T19:41:25.013Z,21.02
2023-04-16T19:43:52.859Z,24.08
2023-04-16T19:46:20.832Z,21.08
2023-04-16T19:48:48.812Z,20.50
2023-04-16T19:51:16.696Z,22.42
2023-04-16T19:53:44.613Z,23.23
2023-04-16T19:56:13.936Z,22.35
2023-04-16T19:58:41.845Z,21.85
2023-04-16T20:01:10.555Z,21.50
2023-04-16T20:03:38.728Z,23.05
2023-04-16T20:06:07.916Z,22.33
2023-04-16T20:08:35.960Z,24.70
2023-04-16T20:11:03.869Z,24.63
2023-04-16T20:13:33.282Z,21.98
2023-04-16T20:16:01.607Z,21.38
2023-04-16T20:18:29.529Z,27.40
2023-04-16T20:20:57.484Z,31.55
2023-04-16T20:23:25.518Z,81.50
2023-04-16T20:25:53.431Z,87.55
2023-04-16T20:28:21.786Z,52.70
2023-04-16T20:30:51.340Z,55.42
2023-04-16T20:33:19.288Z,38.90
2023-04-16T20:35:47.587Z,34.28
2023-04-16T20:38:15.520Z,52.80
2023-04-16T20:40:44.730Z,40.45
2023-04-16T20:43:14.402Z,36.35
2023-04-16T20:46:06.212Z,36.50
2023-04-16T20:48:48.970Z,39.42
2023-04-16T20:51:17.438Z,39.75
2023-04-16T20:53:45.783Z,34.25
2023-04-16T20:56:14.978Z,38.92
2023-04-16T20:58:43.821Z,39.63
2023-04-16T21:01:13.228Z,41.92
2023-04-16T21:03:41.408Z,33.15
2023-04-16T21:06:09.519Z,34.28
2023-04-16T21:08:37.425Z,34.67
2023-04-16T21:11:05.522Z,30.23
2023-04-16T21:13:33.476Z,32.13
2023-04-16T21:16:01.384Z,28.65
2023-04-16T21:18:30.913Z,30.33
2023-04-16T21:20:59.069Z,33.42
2023-04-16T21:23:26.987Z,29.25
2023-04-16T21:25:56.726Z,29.88
2023-04-16T21:28:24.734Z,30.17
2023-04-16T21:30:52.852Z,33.92
2023-04-16T21:33:20.907Z,33.33
2023-04-16T21:35:53.725Z,28.80
2023-04-16T21:38:22.204Z,31.95
2023-04-16T21:40:53.934Z,34.42
2023-04-16T21:43:21.942Z,31.40
2023-04-16T21:45:49.892Z,35.97
2023-04-16T21:48:17.782Z,36.33
2023-04-16T21:50:45.700Z,37.20
2023-04-16T21:53:15.021Z,32.10
2023-04-16T21:55:43.847Z,31.27
2023-04-16T21:58:11.909Z,32.60
2023-04-16T22:00:39.820Z,34.75
2023-04-16T22:03:09.173Z,34.80
2023-04-16T22:05:37.316Z,35.92
2023-04-16T22:08:20.986Z,39.90
2023-04-16T22:10:56.942Z,42.05
2023-04-16T22:13:25.948Z,40.70
2023-04-16T22:15:54.181Z,43.85
2023-04-16T22:18:22.152Z,41.17
2023-04-16T22:20:50.978Z,52.50
2023-04-16T22:23:18.929Z,39.45
2023-04-16T22:25:46.785Z,45.17
2023-04-16T22:28:16.128Z,41.22
2023-04-16T22:30:44.060Z,44.63
2023-04-16T22:33:12.164Z,44.22
2023-04-16T22:35:40.105Z,44.50
2023-04-16T22:38:08.170Z,39.72
2023-04-16T22:40:36.065Z,33.65
2023-04-16T22:43:04.013Z,39.33
2023-04-16T22:45:33.294Z,38.05
2023-04-16T22:48:01.233Z,38.65
2023-04-16T22:50:31.481Z,38.78
2023-04-16T22:52:59.559Z,46.13
2023-04-16T22:55:27.613Z,40.08
2023-04-16T22:57:55.705Z,42.70
2023-04-16T23:00:24.931Z,43.58
2023-04-16T23:02:54.412Z,38.03
2023-04-16T23:05:22.573Z,36.70
2023-04-16T23:07:50.475Z,35.58
2023-04-16T23:10:18.572Z,39.83
2023-04-16T23:12:46.558Z,47.35
2023-04-16T23:15:14.577Z,42.83
2023-04-16T23:17:42.574Z,40.97
2023-04-16T23:20:13.382Z,42.53
2023-04-16T23:22:41.719Z,48.15
2023-04-16T23:25:10.626Z,56.63
2023-04-16T23:27:38.744Z,48.95
2023-04-16T23:30:08.357Z,48.95
2023-04-16T23:32:36.297Z,51.60
2023-04-16T23:35:04.399Z,57.17
2023-04-16T23:37:33.753Z,52.35
2023-04-16T23:40:01.900Z,51.53
2023-04-16T23:42:29.842Z,57.00
2023-04-16T23:44:57.810Z,56.42
2023-04-16T23:47:25.732Z,68.13
2023-04-16T23:49:53.656Z,58.47
2023-04-16T23:52:21.724Z,58.78
2023-04-16T23:54:51.036Z,68.82
2023-04-16T23:57:18.979Z,67.07
2023-04-16T23:59:46.942Z,67.13
